createdAt,value
2019-05-16T00:03:31.407Z,52.18
2019-05-16T00:08:34.818Z,52.67
2019-05-16T00:13:38.463Z,52.17
2019-05-16T00:18:41.949Z,53.84
2019-05-16T00:23:45.446Z,53.01
2019-05-16T00:28:48.880Z,52.26
2019-05-16T00:33:52.296Z,53.10
2019-05-16T00:38:57.724Z,53.61
2019-05-16T00:44:00.855Z,53.73
2019-05-16T00:49:04.347Z,53.78
2019-05-16T00:54:08.363Z,53.95
2019-05-16T00:59:12.096Z,54.55
2019-05-16T01:04:15.537Z,53.30
2019-05-16T01:09:18.985Z,52.15
2019-05-16T01:14:22.363Z,52.58
2019-05-16T01:19:27.747Z,51.75
2019-05-16T01:24:30.935Z,51.71
2019-05-16T01:29:34.382Z,50.60
2019-05-16T01:34:37.948Z,51.23
2019-05-16T01:39:41.342Z,51.77
2019-05-16T01:44:44.842Z,51.56
2019-05-16T01:49:48.880Z,51.06
2019-05-16T01:54:52.506Z,51.25
2019-05-16T01:59:55.935Z,51.28
2019-05-16T02:04:59.417Z,51.35
2019-05-16T02:10:02.922Z,50.87
2019-05-16T02:15:08.172Z,51.04
2019-05-16T02:20:12.001Z,51.17
2019-05-16T02:25:18.578Z,50.56
2019-05-16T02:30:22.132Z,52.17
2019-05-16T02:35:25.649Z,52.74
2019-05-16T02:40:31.242Z,51.45
2019-05-16T02:45:34.394Z,52.67
2019-05-16T02:50:37.838Z,52.25
2019-05-16T02:55:41.270Z,51.47
2019-05-16T03:00:44.796Z,51.71
2019-05-16T03:05:50.814Z,51.65
2019-05-16T03:10:55.965Z,51.83
2019-05-16T03:16:02.171Z,51.68
2019-05-16T03:21:07.355Z,51.63
2019-05-16T03:26:11.703Z,51.80
2019-05-16T03:31:16.201Z,51.77
2019-05-16T03:36:25.298Z,51.81
2019-05-16T03:41:24.962Z,51.45
2019-05-16T03:46:30.918Z,52.28
2019-05-16T03:51:33.543Z,52.65
2019-05-16T03:56:36.969Z,52.56
2019-05-16T04:01:41.159Z,52.92
2019-05-16T04:06:44.613Z,53.32
2019-05-16T04:11:50.875Z,53.61
2019-05-16T04:16:53.332Z,53.78
2019-05-16T04:21:56.770Z,54.09
2019-05-16T04:27:00.975Z,54.21
2019-05-16T04:32:04.560Z,54.53
2019-05-16T04:37:11.280Z,54.75
2019-05-16T04:42:13.152Z,54.33
2019-05-16T04:47:16.579Z,55.03
2019-05-16T04:52:21.725Z,54.76
2019-05-16T04:57:25.160Z,54.72
2019-05-16T05:02:31.003Z,55.62
2019-05-16T05:07:33.730Z,55.32
2019-05-16T05:12:37.136Z,55.98
2019-05-16T05:17:41.493Z,55.74
2019-05-16T05:22:44.981Z,55.58
2019-05-16T05:27:50.113Z,55.60
2019-05-16T05:32:53.718Z,55.84
2019-05-16T05:37:57.149Z,55.92
2019-05-16T05:43:00.574Z,57.02
2019-05-16T05:48:04.084Z,56.13
2019-05-16T05:53:10.056Z,55.99
2019-05-16T05:58:12.713Z,56.06
2019-05-16T06:03:16.170Z,55.29
2019-05-16T06:08:20.660Z,55.36
2019-05-16T06:13:24.026Z,55.40
2019-05-16T06:18:27.456Z,56.06
2019-05-16T06:23:31.280Z,56.46
2019-05-16T06:28:34.818Z,56.88
2019-05-16T06:33:38.239Z,57.62
2019-05-16T06:38:42.507Z,57.08
2019-05-16T06:43:45.935Z,56.46
2019-05-16T06:48:50.613Z,56.55
2019-05-16T06:53:54.226Z,55.73
2019-05-16T06:58:57.710Z,56.51
2019-05-16T07:04:01.146Z,56.20
2019-05-16T07:09:06.424Z,55.42
2019-05-16T07:14:10.590Z,56.29
2019-05-16T07:19:14.228Z,54.39
2019-05-16T07:24:19.757Z,55.34
2019-05-16T07:29:22.848Z,56.22
2019-05-16T07:34:26.276Z,55.38
2019-05-16T07:39:30.672Z,55.62
2019-05-16T07:44:34.309Z,55.40
2019-05-16T07:49:37.740Z,54.44
2019-05-16T07:54:41.143Z,54.62
2019-05-16T07:59:44.590Z,54.69
2019-05-16T08:04:50.149Z,54.57
2019-05-16T08:09:53.318Z,54.48
2019-05-16T08:14:56.746Z,54.10
2019-05-16T08:20:00.453Z,54.60
2019-05-16T08:25:05.809Z,54.30
2019-05-16T08:30:11.221Z,54.13
2019-05-16T08:35:14.824Z,54.43
2019-05-16T08:40:21.381Z,53.94
2019-05-16T08:45:23.730Z,54.54
2019-05-16T08:50:27.285Z,53.12
2019-05-16T08:55:31.431Z,54.78
2019-05-16T09:00:34.822Z,54.42
2019-05-16T09:05:42.629Z,53.34
2019-05-16T09:10:51.449Z,52.96
2019-05-16T09:15:48.545Z,55.18
2019-05-16T09:20:53.349Z,55.03
2019-05-16T09:25:58.477Z,55.04
2019-05-16T09:31:02.091Z,55.60
2019-05-16T09:36:08.043Z,54.01
2019-05-16T09:41:10.710Z,53.74
2019-05-16T09:46:17.186Z,54.10
2019-05-16T09:51:21.441Z,54.60
2019-05-16T09:56:26.982Z,54.02
2019-05-16T10:01:30.152Z,54.21
2019-05-16T10:06:33.713Z,54.85
2019-05-16T10:11:42.115Z,55.33
2019-05-16T10:16:42.395Z,54.91
2019-05-16T10:21:45.967Z,55.28
2019-05-16T10:26:53.854Z,57.25
2019-05-16T10:31:56.844Z,58.79
2019-05-16T10:36:59.952Z,61.22
2019-05-16T10:42:03.351Z,61.22
2019-05-16T10:47:07.604Z,62.38
2019-05-16T10:52:11.155Z,60.23
2019-05-16T10:57:14.671Z,60.20
2019-05-16T11:02:18.326Z,59.88
2019-05-16T11:07:21.863Z,58.95
2019-05-16T11:12:45.200Z,58.18
2019-05-16T11:17:30.443Z,59.35
2019-05-16T11:22:36.772Z,59.09
2019-05-16T11:27:39.047Z,61.03
2019-05-16T11:32:42.466Z,62.55
2019-05-16T11:37:47.208Z,61.69
2019-05-16T11:43:05.675Z,60.34
2019-05-16T11:47:56.700Z,59.82
2019-05-16T11:53:00.235Z,60.10
2019-05-16T11:58:03.728Z,58.93
2019-05-16T12:03:07.568Z,57.53
2019-05-16T12:08:10.997Z,56.65
2019-05-16T12:13:27.314Z,55.89
2019-05-16T12:18:19.682Z,56.56
2019-05-16T12:23:23.117Z,57.20
2019-05-16T12:28:27.577Z,56.84
2019-05-16T12:33:31.015Z,57.85
2019-05-16T12:38:34.445Z,58.52
2019-05-16T12:43:48.719Z,58.26
2019-05-16T12:48:43.034Z,58.16
2019-05-16T12:53:47.752Z,57.54
2019-05-16T12:58:51.483Z,57.02
2019-05-16T13:03:54.912Z,57.18
2019-05-16T13:08:58.335Z,57.50
2019-05-16T13:14:06.466Z,58.15
2019-05-16T13:19:07.257Z,57.23
2019-05-16T13:24:10.734Z,57.24
2019-05-16T13:29:14.160Z,56.79
2019-05-16T13:34:18.036Z,57.26
2019-05-16T13:39:21.755Z,57.95
2019-05-16T13:44:27.378Z,58.97
2019-05-16T13:49:30.403Z,59.20
2019-05-16T13:54:36.251Z,60.88
2019-05-16T13:59:38.957Z,63.36
2019-05-16T14:04:42.446Z,65.35
2019-05-16T14:09:47.155Z,64.68
2019-05-16T14:14:51.289Z,65.57
2019-05-16T14:19:57.146Z,65.71
2019-05-16T14:24:59.856Z,64.84
2019-05-16T14:30:07.353Z,65.80
2019-05-16T14:35:09.413Z,66.08
2019-05-16T14:40:13.557Z,65.85
2019-05-16T14:45:18.831Z,66.45
2019-05-16T14:50:22.333Z,65.92
2019-05-16T14:55:27.476Z,67.98
2019-05-16T15:00:31.148Z,66.86
2019-05-16T15:05:41.811Z,67.44
2019-05-16T15:10:39.723Z,67.51
2019-05-16T15:15:43.224Z,67.06
2019-05-16T15:20:48.392Z,67.16
2019-05-16T15:25:51.801Z,67.64
2019-05-16T15:30:57.348Z,67.39
2019-05-16T15:36:00.456Z,68.53
2019-05-16T15:41:03.884Z,68.78
2019-05-16T15:46:08.429Z,68.86
2019-05-16T15:51:12.686Z,69.46
2019-05-16T15:56:17.852Z,69.81
2019-05-16T16:01:21.484Z,69.89
2019-05-16T16:06:27.475Z,70.22
2019-05-16T16:11:30.329Z,70.27
2019-05-16T16:16:33.664Z,70.87
2019-05-16T16:21:37.940Z,71.11
2019-05-16T16:26:41.723Z,71.57
2019-05-16T16:31:47.501Z,71.71
2019-05-16T16:36:50.297Z,70.24
2019-05-16T16:41:53.801Z,72.30
2019-05-16T16:46:57.465Z,74.98
2019-05-16T16:52:00.932Z,77.27
2019-05-16T16:57:07.490Z,79.96
2019-05-16T17:02:09.518Z,79.44
2019-05-16T17:07:12.978Z,80.12
2019-05-16T17:12:16.401Z,80.01
2019-05-16T17:17:19.821Z,84.34
2019-05-16T17:22:23.261Z,87.03
2019-05-16T17:27:26.995Z,90.63
2019-05-16T17:32:30.422Z,88.28
2019-05-16T17:37:33.861Z,89.59
2019-05-16T17:42:37.453Z,84.28
2019-05-16T17:47:40.999Z,87.38
2019-05-16T17:52:47.305Z,85.51
2019-05-16T17:58:07.941Z,88.81
2019-05-16T18:03:18.602Z,84.73
2019-05-16T18:13:52.494Z,87.12
2019-05-16T18:18:57.546Z,85.62
2019-05-16T18:24:01.001Z,83.00
2019-05-16T18:29:06.716Z,84.75
2019-05-16T18:34:09.757Z,83.38
2019-05-16T18:39:13.187Z,83.77
2019-05-16T18:44:16.978Z,86.19
2019-05-16T18:49:20.401Z,86.05
2019-05-16T18:54:26.489Z,85.28
2019-05-16T18:59:28.977Z,88.22
2019-05-16T19:04:32.489Z,92.08
2019-05-16T19:09:37.449Z,88.39
2019-05-16T19:14:41.054Z,87.15
2019-05-16T19:19:46.447Z,86.94
2019-05-16T19:24:49.762Z,91.04
2019-05-16T19:29:53.187Z,89.51
2019-05-16T19:34:57.429Z,87.59
2019-05-16T19:40:00.920Z,87.69
2019-05-16T19:45:09.070Z,95.98
2019-05-16T19:50:12.755Z,96.04
2019-05-16T19:55:16.253Z,91.78
2019-05-16T20:00:20.776Z,88.68
2019-05-16T20:05:26.507Z,86.91
2019-05-16T20:10:29.585Z,91.92
2019-05-16T20:15:33.107Z,90.53
2019-05-16T20:20:37.252Z,90.05
2019-05-16T20:25:40.839Z,88.16
2019-05-16T20:30:44.272Z,91.27
2019-05-16T20:35:47.687Z,93.18
2019-05-16T20:40:51.151Z,94.02
2019-05-16T20:45:56.608Z,98.13
2019-05-16T20:50:59.721Z,97.28
2019-05-16T20:56:03.160Z,99.33
2019-05-16T21:01:07.172Z,95.77
2019-05-16T21:06:10.723Z,97.06
2019-05-16T21:11:14.142Z,100.00
2019-05-16T21:16:18.272Z,95.16
2019-05-16T21:21:21.780Z,97.44
2019-05-16T21:26:26.271Z,90.68
2019-05-16T21:31:29.864Z,92.29
2019-05-16T21:36:33.281Z,97.46
2019-05-16T21:41:36.714Z,96.16
2019-05-16T21:46:40.130Z,93.95
2019-05-16T21:51:43.612Z,91.25
2019-05-16T21:56:47.041Z,92.50
2019-05-16T22:01:50.955Z,91.37
2019-05-16T22:06:56.543Z,94.04
2019-05-16T22:11:59.601Z,93.40
2019-05-16T22:17:03.032Z,98.87
2019-05-16T22:22:07.415Z,91.25
2019-05-16T22:27:10.993Z,94.87
2019-05-16T22:32:16.435Z,95.24
2019-05-16T22:37:19.534Z,91.45
2019-05-16T22:42:22.964Z,93.04
2019-05-16T22:47:26.710Z,93.87
2019-05-16T22:52:30.290Z,91.98
2019-05-16T22:57:33.779Z,91.02
2019-05-16T23:02:37.211Z,88.94
2019-05-16T23:07:40.656Z,89.01
2019-05-16T23:12:44.078Z,88.24
2019-05-16T23:17:47.504Z,88.86
2019-05-16T23:22:50.948Z,89.92
2019-05-16T23:27:56.609Z,90.26
2019-05-16T23:32:59.587Z,90.68
2019-05-16T23:38:14.674Z,94.05
2019-05-16T23:43:08.185Z,91.29
2019-05-16T23:48:11.625Z,92.41
2019-05-16T23:53:16.425Z,92.29
2019-05-16T23:58:20.006Z,96.29
